Airfield :
LOGIN :

Register | Disclaimer

   EN    FR    IT 

 










Legend :    VFR   Marginal VFR   IFR   Intensive IFR   Very Intensive IFR
Visi :
Ceiling :
>= 8 km
>= 3000ft
5 to 8 km
1000 to 3000 ft
1500m to 5 km
500 to 1000 ft
800 to 1500m
200 to 500 ft
< 800m
< 200 ft
Symbols :   Thunderstorms  Fog  Heavy snow  Heavy precipitations  Wind > 20 kt
SIGMETs :     Misc.  Thunderstorms  Icing  Turbulence  Mountain Waves  Volcanic Ashes






- Airport Elevation : 56 ft
- IATA code : BZR


LFMU - Beziers / Vias

CURRENT METAR :
  • 231930Z AUTO 07009KT CAVOK 25/20 Q1009 BECMG 36010KT

EXPIRED METARs :
  • 231900Z AUTO 07010KT CAVOK 25/20 Q1009 BECMG 36010KT
  • 231830Z AUTO 08011KT CAVOK 25/20 Q1009 BECMG 36010KT
  • 231800Z AUTO 07012KT CAVOK 26/20 Q1009 BECMG 36010KT
  • 231730Z AUTO 08013KT CAVOK 26/21 Q1009 BECMG 36010KT
  • 231700Z AUTO 09014KT CAVOK 26/21 Q1009 NOSIG

TAF TAF LFMU
Valid from the 23 at 15:00 until the 24 at 15:00 UTC


231400Z 2315/2415 09014KT 9999 FEW008
BECMG 2319/2322 36010KT CAVOK
BECMG 2402/2405 30005KT
BECMG 2411/2413 18010KT
ATIS : +33 4 67 90 88 88



MET'MAP, your aeronautical weather chart ! - Copyright ORBIFLY December 2007 - Disclaimer

ORBIFLY MET'MAP TEAM :

Programming & Development : Alexandra Zaïnal
Concept & original design : Baudouin d'Aumeries
Assistance for programming : Marc-Olivier Méhu
Technical & hardware support : Manuel Goepfert

Contact : metmap@orbifly.com




SOURCES & CREDITS :

   NOAA